Flight Track Log - Related Links

Times and Time Zones

All times are in EDT time to prevent confusion due to time zone crossing. See the N100PM flight status page for this flight to view local times or setup timezone preferences in your user account.


Time Position Orientation Groundspeed Altitude Reporting Facility
EDT Latitude Longitude Course Direction KTS MPH feet Rate Location/Type
Wed 01:01:00 AM 31.2067 -94.7908 278° West 82 94 2,600  Level Houston Center
Wed 01:02:00 AM 31.2092 -94.8186 276° West 85 98 3,200 550 Climbing Houston Center
Wed 01:03:00 AM 31.2092 -94.8461 270° West 84 97 3,700 550 Climbing Houston Center
Wed 01:04:00 AM 31.2089 -94.8728 269° West 85 98 4,300 550 Climbing Houston Center
Wed 01:05:00 AM 31.2156 -94.9008 286° West 89 102 4,800 496 Climbing Houston Center
Wed 01:06:00 AM 31.2523 -94.9028 278° West  Level Estimated
Wed 01:06:01 AM 31.2183 -94.9272 277° West 84 97 5,300  Level Houston Center
Wed 01:07:01 AM 31.2228 -94.9531 281° West 82 94 5,800 400 Climbing Houston Center
Wed 01:08:01 AM 31.2267 -94.9808 279° West 84 97 6,100 150 Climbing Houston Center
Wed 01:09:01 AM 31.2350 -95.0144 286° West 106 122 6,100 -50 Level Houston Center
Wed 01:10:02 AM 31.2372 -95.0478 274° West 104 120 6,000 -50 Descending Houston Center
Wed 01:11:02 AM 31.2408 -95.0800 277° West 101 116 6,000  Level Houston Center
Wed 01:12:02 AM 31.2456 -95.1133 279° West 104 120 6,000  Level Houston Center
Wed 01:13:02 AM 31.2492 -95.1464 277° West 102 117 6,000  Level Houston Center
Wed 01:14:02 AM 31.2525 -95.1806 277° West 104 120 6,000  Level Houston Center
Wed 01:15:03 AM 31.2561 -95.2128 277° West 102 117 6,000  Level Houston Center
Wed 01:16:03 AM 31.2603 -95.2458 278° West 102 117 6,000  Level Houston Center
Wed 01:17:03 AM 31.2647 -95.2789 279° West 103 119 6,000  Level Houston Center
Wed 01:18:03 AM 31.2678 -95.3108 276° West 102 117 6,000  Level Houston Center
Wed 01:19:03 AM 31.2711 -95.3425 277° West 99 114 6,000  Level Houston Center
Wed 01:20:03 AM 31.2761 -95.3739 281° West 98 113 6,000  Level Houston Center
Wed 01:21:04 AM 31.2800 -95.4069 278° West 100 115 6,000  Level Houston Center
Wed 01:22:04 AM 31.2844 -95.4386 279° West 100 115 6,000  Level Houston Center
Wed 01:23:04 AM 31.2875 -95.4700 277° West 98 113 6,000  Level Houston Center
Wed 01:24:04 AM 31.2917 -95.5008 279° West 97 112 6,000  Level Houston Center
Wed 01:25:04 AM 31.2953 -95.5336 277° West 100 115 6,000  Level Houston Center
Wed 01:26:04 AM 31.2983 -95.5650 277° West 99 114 6,000  Level Houston Center
Wed 01:27:04 AM 31.3011 -95.5975 276° West 99 114 6,000  Level Houston Center
Wed 01:28:05 AM 31.3047 -95.6294 278° West 99 114 6,000  Level Houston Center
Wed 01:29:05 AM 31.3100 -95.6614 281° West 101 116 6,000  Level Houston Center
Wed 01:30:05 AM 31.3136 -95.6925 278° West 97 112 6,000  Level Houston Center
Wed 01:31:05 AM 31.3169 -95.7239 277° West 97 112 6,000  Level Houston Center
Wed 01:32:05 AM 31.3208 -95.7561 278° West 98 113 6,000  Level Houston Center
Wed 01:33:05 AM 31.3228 -95.7883 274° West 100 115 6,000  Level Houston Center
Wed 01:34:05 AM 31.3281 -95.8203 281° West 100 115 6,000  Level Houston Center
Wed 01:35:06 AM 31.3328 -95.8528 280° West 100 115 6,000  Level Houston Center
Wed 01:36:06 AM 31.3361 -95.8853 277° West 101 116 6,000  Level Houston Center
Wed 01:37:06 AM 31.3397 -95.9175 277° West 100 115 6,000  Level Houston Center
Wed 01:38:06 AM 31.3431 -95.9497 277° West 99 114 6,000  Level Houston Center
Wed 01:39:06 AM 31.3494 -95.9806 284° West 98 113 6,000  Level Houston Center
Wed 01:40:06 AM 31.3519 -96.0122 275° West 99 114 6,000  Level Houston Center
Wed 01:41:07 AM 31.3569 -96.0431 281° West 97 112 6,000 -50 Level Houston Center
Wed 01:42:07 AM 31.3597 -96.0792 275° West 98 113 5,900 -50 Descending Houston Center
Wed 01:43:07 AM 31.3628 -96.1111 276° West 99 114 5,900  Level Houston Center
Wed 01:44:07 AM 31.3667 -96.1431 278° West 98 113 5,900  Level Houston Center
Wed 01:45:07 AM 31.3700 -96.1697 278° West 98 113 5,900  Level Houston Center
Wed 01:46:07 AM 31.3725 -96.2000 276° West 94 108 5,900  Level Houston Center
Wed 01:47:07 AM 31.3761 -96.2314 278° West 95 109 5,900  Level Houston Center
Wed 01:48:07 AM 31.3797 -96.2628 278° West 96 110 5,900  Level Houston Center
Wed 01:49:08 AM 31.3819 -96.2939 275° West 96 110 5,900  Level Houston Center
Wed 01:50:08 AM 31.3861 -96.3256 279° West 97 112 5,900  Level Houston Center
Wed 01:51:08 AM 31.3894 -96.3569 277° West 97 112 5,900  Level Houston Center
Wed 01:52:08 AM 31.3931 -96.3881 278° West 96 110 5,900  Level Houston Center
Wed 01:53:08 AM 31.3961 -96.4194 277° West 96 110 5,900  Level Houston Center
Wed 01:54:08 AM 31.4000 -96.4508 278° West 97 112 5,900  Level Houston Center
Wed 01:55:09 AM 31.4031 -96.4811 277° West 94 108 5,900  Level Houston Center
Wed 01:56:09 AM 31.4072 -96.5114 279° West 93 107 5,900  Level Houston Center
Wed 01:57:09 AM 31.4117 -96.5417 280° West 94 108 5,900  Level Houston Center
Wed 01:58:56 AM 31.4172 -96.5978 277° West 99 114 5,900  Level Fort Worth Center
Wed 01:59:56 AM 31.4217 -96.6294 279° West 99 114 5,900  Level Fort Worth Center
Wed 02:00:56 AM 31.4261 -96.6561 281° West 99 114 5,900  Level Fort Worth Center
Wed 02:01:56 AM 31.4283 -96.6856 275° West 99 114 5,900  Level Fort Worth Center
Wed 02:02:58 AM 31.4328 -96.7169 279° West 105 121 5,900  Level Fort Worth Center
Wed 02:04:08 AM 31.4369 -96.7511 278° West 105 121 5,900  Level Fort Worth Center
Wed 02:05:08 AM 31.4392 -96.7803 275° West 99 114 5,900  Level Fort Worth Center
Wed 02:06:08 AM 31.4436 -96.8119 279° West 94 108 5,900  Level Fort Worth Center
Wed 02:07:08 AM 31.4458 -96.8411 275° West 94 108 5,900  Level Fort Worth Center
Wed 02:08:08 AM 31.4458 -96.8703 270° West 99 114 5,900  Level Fort Worth Center
Wed 02:09:08 AM 31.4503 -96.9019 279° West 104 120 5,900  Level Fort Worth Center
Wed 02:10:08 AM 31.4525 -96.9336 275° West 104 120 5,900  Level Fort Worth Center
Wed 02:10:13 AM 31.4525 -96.9433 270° West 95 109 5,900  Level Fort Worth Center
Wed 02:10:19 AM 31.4525 -96.9458 270° West 95 109 5,900  Level Fort Worth Center
Wed 02:11:08 AM 31.4567 -96.9678 283° West 104 120 5,900  Level Fort Worth Center
Wed 02:11:20 AM 31.4547 -96.9775 257° West 97 112 5,900  Level Fort Worth Center
Wed 02:12:08 AM 31.4589 -97.0017 281° West 104 120 5,900  Level Fort Worth Center
Wed 02:12:20 AM 31.4589 -97.0092 270° West 96 110 5,900  Level Fort Worth Center
Wed 02:13:08 AM 31.4611 -97.0311 277° West 104 120 5,900  Level Fort Worth Center
Wed 02:13:21 AM 31.4611 -97.0408 270° West 98 113 5,900  Level Fort Worth Center
Wed 02:14:08 AM 31.4633 -97.0625 277° West 104 120 5,900  Level Fort Worth Center
Wed 02:14:21 AM 31.4656 -97.0722 285° West 99 114 5,900 100 Level Fort Worth Center
Wed 02:15:08 AM 31.4675 -97.0967 275° West 104 120 6,000 98 Climbing Fort Worth Center
Wed 02:15:22 AM 31.4675 -97.1064 270° West 102 117 6,000  Level Fort Worth Center
Wed 02:16:08 AM 31.4719 -97.1258 285° West 104 120 6,000  Level Fort Worth Center
Wed 02:16:23 AM 31.4719 -97.1406 270° West 98 113 6,000  Level Fort Worth Center
Wed 02:17:08 AM 31.4739 -97.1575 278° West 104 120 6,000  Level Fort Worth Center
Wed 02:17:23 AM 31.4739 -97.1697 270° West 99 114 6,000  Level Fort Worth Center
Wed 02:18:08 AM 31.4783 -97.1917 283° West 104 120 6,000  Level Fort Worth Center
Wed 02:18:24 AM 31.4783 -97.2014 270° West 99 114 6,000  Level Fort Worth Center
Wed 02:19:08 AM 31.4825 -97.2233 283° West 104 120 6,000  Level Fort Worth Center
Wed 02:19:24 AM 31.4844 -97.2331 283° West 100 115 6,000  Level Fort Worth Center
Wed 02:20:08 AM 31.4867 -97.2550 277° West 104 120 6,000  Level Fort Worth Center
Wed 02:20:25 AM 31.4889 -97.2697 280° West 102 117 6,000  Level Fort Worth Center
Wed 02:21:08 AM 31.4908 -97.2867 278° West 104 120 6,000  Level Fort Worth Center
Wed 02:21:26 AM 31.4931 -97.2989 282° West 101 116 6,000  Level Fort Worth Center
Wed 02:22:08 AM 31.4950 -97.3158 278° West 104 120 6,000  Level Fort Worth Center
Wed 02:22:26 AM 31.4950 -97.3331 270° West 98 113 6,000  Level Fort Worth Center
Wed 02:23:08 AM 31.4972 -97.3475 280° West 104 120 6,000  Level Fort Worth Center
Wed 02:23:27 AM 31.4992 -97.3669 277° West 98 113 6,000  Level Fort Worth Center
Wed 02:24:08 AM 31.5014 -97.3792 282° West 104 120 6,000  Level Fort Worth Center
Wed 02:24:27 AM 31.5014 -97.3986 270° West 99 114 6,000  Level Fort Worth Center
Wed 02:25:08 AM 31.5033 -97.4108 281° West 104 120 6,000  Level Fort Worth Center
Wed 02:25:28 AM 31.5033 -97.4328 270° West 102 117 6,000  Level Fort Worth Center
Wed 02:26:08 AM 31.5078 -97.4450 293° West 104 120 6,000  Level Fort Worth Center
Wed 02:26:29 AM 31.5056 -97.4622 261° West 100 115 6,000  Level Fort Worth Center
Wed 02:27:08 AM 31.5097 -97.4767 289° West 104 120 6,000  Level Fort Worth Center
Wed 02:27:29 AM 31.5097 -97.4961 270° West 100 115 6,000  Level Fort Worth Center
Wed 02:28:08 AM 31.5117 -97.5108 279° West 104 120 6,000  Level Fort Worth Center
Wed 02:28:30 AM 31.5117 -97.5278 270° West 101 116 6,000  Level Fort Worth Center
Wed 02:29:30 AM 31.5139 -97.5644 274° West 106 122 6,000  Level Fort Worth Center
Wed 02:30:31 AM 31.5181 -97.5986 278° West 107 123 6,000  Level Fort Worth Center
Wed 02:31:32 AM 31.5219 -97.6303 278° West 102 117 6,000  Level Fort Worth Center
Wed 02:32:32 AM 31.5283 -97.6669 282° West 104 120 6,000  Level Fort Worth Center
Wed 02:33:33 AM 31.5325 -97.6986 279° West 102 117 6,000  Level Fort Worth Center
Wed 02:34:33 AM 31.5364 -97.7325 278° West 100 115 6,000  Level Fort Worth Center
Wed 02:35:34 AM 31.5383 -97.7619 274° West 98 113 6,000  Level Fort Worth Center
Wed 02:36:35 AM 31.5406 -97.7936 275° West 95 109 6,000  Level Fort Worth Center
Wed 02:37:35 AM 31.5444 -97.8228 279° West 92 106 6,000  Level Fort Worth Center
Wed 02:38:36 AM 31.5508 -97.8522 284° West 93 107 6,000  Level Fort Worth Center
Wed 02:39:36 AM 31.5528 -97.8886 274° West 103 119 6,000  Level Fort Worth Center
Wed 02:40:37 AM 31.5547 -97.9181 274° West 101 116 6,000  Level Fort Worth Center
Wed 02:41:38 AM 31.5586 -97.9522 278° West 99 114 6,000  Level Fort Worth Center
Wed 02:42:38 AM 31.5606 -97.9839 274° West 100 115 6,000  Level Fort Worth Center
Wed 02:43:20 AM 31.5647 -98.0011 286° West 101 116 6,000  Level Fort Worth Center
Wed 02:44:20 AM 31.5686 -98.0328 278° West 101 116 6,000  Level Fort Worth Center
Wed 02:45:20 AM 31.5706 -98.0669 274° West 106 122 6,000  Level Fort Worth Center
Wed 02:46:20 AM 31.5767 -98.0961 284° West 106 122 6,000  Level Fort Worth Center
Wed 02:47:20 AM 31.5767 -98.1303 270° West 106 122 6,000  Level Fort Worth Center
Wed 02:48:20 AM 31.5806 -98.1619 278° West 106 122 6,000  Level Fort Worth Center
Wed 02:49:20 AM 31.5825 -98.1961 274° West 100 115 6,000  Level Fort Worth Center
Wed 02:50:20 AM 31.5864 -98.2303 278° West 105 121 6,000  Level Fort Worth Center
Wed 02:51:20 AM 31.5903 -98.2644 278° West 105 121 6,000  Level Fort Worth Center
Wed 02:52:20 AM 31.5942 -98.2964 278° West 100 115 6,000  Level Fort Worth Center
Wed 02:53:20 AM 31.5961 -98.3303 274° West 105 121 6,000  Level Fort Worth Center
Wed 02:54:20 AM 31.6000 -98.3572 280° West 100 115 6,000  Level Fort Worth Center
Wed 02:55:20 AM 31.6042 -98.3914 278° West 100 115 6,000  Level Fort Worth Center
Wed 02:56:20 AM 31.6058 -98.4231 274° West 105 121 6,000  Level Fort Worth Center
Wed 02:57:20 AM 31.6097 -98.4550 278° West 105 121 6,000  Level Fort Worth Center
Wed 02:58:20 AM 31.6117 -98.4867 274° West 105 121 6,000  Level Fort Worth Center
Wed 02:59:20 AM 31.6156 -98.5136 280° West 100 115 6,000  Level Fort Worth Center
Wed 03:00:20 AM 31.6194 -98.5453 278° West 100 115 6,000  Level Fort Worth Center
Wed 03:01:20 AM 31.6211 -98.5769 274° West 106 122 6,000  Level Fort Worth Center
Wed 03:02:20 AM 31.6250 -98.6089 278° West 106 122 6,000  Level Fort Worth Center
Wed 03:03:20 AM 31.6247 -98.6456 269° West 106 122 6,000  Level Fort Worth Center
Wed 03:04:20 AM 31.6286 -98.6772 278° West 106 122 6,000  Level Fort Worth Center
Wed 03:05:20 AM 31.6325 -98.7164 277° West 106 122 6,000  Level Fort Worth Center
Wed 03:06:20 AM 31.6342 -98.7506 273° West 106 122 6,000 -50 Level Fort Worth Center
Wed 03:07:20 AM 31.6381 -98.7822 278° West 101 116 5,900 -50 Descending Fort Worth Center
Wed 03:08:20 AM 31.6417 -98.8142 278° West 106 122 5,900  Level Fort Worth Center
Wed 03:09:20 AM 31.6436 -98.8483 274° West 106 122 5,900  Level Fort Worth Center
Wed 03:10:20 AM 31.6472 -98.8800 278° West 107 123 5,900  Level Fort Worth Center
Wed 03:11:20 AM 31.6489 -98.9117 274° West 102 117 5,900  Level Fort Worth Center
Wed 03:12:20 AM 31.6528 -98.9436 278° West 102 117 5,900  Level Fort Worth Center
Wed 03:13:20 AM 31.6567 -98.9778 278° West 102 117 5,900  Level Fort Worth Center
Wed 03:14:20 AM 31.6603 -99.0047 279° West 102 117 5,900  Level Fort Worth Center
Wed 03:15:20 AM 31.6619 -99.0364 274° West 102 117 5,900  Level Fort Worth Center
Wed 03:16:20 AM 31.6658 -99.0708 278° West 102 117 5,900  Level Fort Worth Center
Wed 03:17:20 AM 31.6694 -99.1050 277° West 102 117 5,900  Level Fort Worth Center
Wed 03:18:20 AM 31.6753 -99.1342 283° West 102 117 5,900  Level Fort Worth Center
Wed 03:19:20 AM 31.6747 -99.1733 269° West 102 117 5,900  Level Fort Worth Center
Wed 03:20:20 AM 31.6786 -99.2028 279° West 102 117 5,900  Level Fort Worth Center
Wed 03:21:20 AM 31.6803 -99.2344 274° West 102 117 5,900  Level Fort Worth Center
Wed 03:22:20 AM 31.6839 -99.2689 277° West 102 117 5,900  Level Fort Worth Center
Wed 03:23:20 AM 31.6875 -99.3031 277° West 102 117 5,900  Level Fort Worth Center
Wed 03:24:20 AM 31.6892 -99.3347 274° West 102 117 5,900  Level Fort Worth Center
Wed 03:25:20 AM 31.6928 -99.3642 278° West 102 117 5,900  Level Fort Worth Center
Wed 03:26:20 AM 31.6964 -99.4008 277° West 102 117 5,900  Level Fort Worth Center
Wed 03:27:20 AM 31.6981 -99.4350 273° West 102 117 5,900  Level Fort Worth Center
Wed 03:28:20 AM 31.7039 -99.4644 283° West 102 117 5,900  Level Fort Worth Center
Wed 03:29:20 AM 31.7075 -99.4989 277° West 102 117 5,900  Level Fort Worth Center
Wed 03:30:20 AM 31.7111 -99.5306 278° West 102 117 5,900  Level Fort Worth Center
Wed 03:31:20 AM 31.7125 -99.5647 273° West 102 117 5,900  Level Fort Worth Center
Wed 03:32:20 AM 31.7183 -99.5942 283° West 102 117 5,900  Level Fort Worth Center
Wed 03:33:20 AM 31.7219 -99.6261 278° West 102 117 5,900  Level Fort Worth Center
Wed 03:34:20 AM 31.7256 -99.6556 278° West 102 117 5,900  Level Fort Worth Center
Wed 03:35:20 AM 31.7292 -99.6872 278° West 102 117 5,900  Level Fort Worth Center
Wed 03:36:20 AM 31.7347 -99.7217 281° West 102 117 5,900  Level Fort Worth Center
Wed 03:37:20 AM 31.7386 -99.7511 279° West 97 112 5,900  Level Fort Worth Center
Wed 03:38:20 AM 31.7381 -99.7803 269° West 97 112 5,900  Level Fort Worth Center
Wed 03:39:20 AM 31.7458 -99.8075 289° West 89 102 5,900 50 Level Fort Worth Center
Wed 03:40:20 AM 31.7472 -99.8344 273° West 84 97 6,000 100 Climbing Fort Worth Center
Wed 03:41:20 AM 31.7489 -99.8611 274° West 89 102 6,100  Climbing Fort Worth Center
Wed 03:42:20 AM 31.7525 -99.8956 277° West 90 104 6,000 -50 Descending Fort Worth Center
Wed 03:43:20 AM 31.7561 -99.9250 278° West 95 109 6,000 -50 Level Fort Worth Center
Wed 03:44:20 AM 31.7556 -99.9542 269° West 100 115 5,900 -50 Descending Fort Worth Center
Wed 03:45:20 AM 31.7569 -99.9861 273° West 100 115 5,900 50 Level Fort Worth Center
Wed 03:46:20 AM 31.7606 -100.0156 278° West 100 115 6,000 100 Climbing Fort Worth Center
Wed 03:47:20 AM 31.7600 -100.0400 268° West 95 109 6,100  Climbing Fort Worth Center
Wed 03:48:20 AM 31.7594 -100.0667 269° West 89 102 6,000 -50 Descending Fort Worth Center
Wed 03:49:20 AM 31.7608 -100.0961 273° West 89 102 6,000  Level Fort Worth Center
Wed 03:50:20 AM 31.7622 -100.1278 273° West 89 102 6,000  Level Fort Worth Center
Wed 03:51:20 AM 31.7575 -100.1569 259° West 84 97 6,000 50 Level Fort Worth Center
Wed 03:52:20 AM 31.7569 -100.1814 268° West 89 102 6,100  Climbing Fort Worth Center
Wed 03:53:20 AM 31.7625 -100.2133 282° West 89 102 6,000 -50 Descending Fort Worth Center
Wed 03:54:20 AM 31.7658 -100.2453 277° West 89 102 6,000  Level Fort Worth Center
Wed 03:55:20 AM 31.7672 -100.2747 273° West 95 109 6,000  Level Fort Worth Center
Wed 03:56:20 AM 31.7708 -100.3042 278° West 95 109 6,000  Level Fort Worth Center
Wed 03:57:20 AM 31.7742 -100.3361 277° West 95 109 6,000  Level Fort Worth Center
Wed 03:58:20 AM 31.7714 -100.3653 264° West 95 109 6,000  Level Fort Worth Center
Wed 03:59:20 AM 31.7728 -100.3969 273° West 101 116 6,000  Level Fort Worth Center
Wed 04:00:20 AM 31.7742 -100.4239 273° West 101 116 6,000  Level Fort Worth Center
Wed 04:01:20 AM 31.7797 -100.4608 280° West 101 116 6,000  Level Fort Worth Center
Wed 04:02:20 AM 31.7831 -100.4903 278° West 101 116 6,000  Level Fort Worth Center
Wed 04:03:20 AM 31.7867 -100.5172 279° West 101 116 6,000  Level Fort Worth Center
Wed 04:04:20 AM 31.7900 -100.5517 277° West 101 116 6,000  Level Fort Worth Center
Wed 04:05:20 AM 31.7933 -100.5811 278° West 101 116 6,000  Level Fort Worth Center
Wed 04:06:20 AM 31.7967 -100.6128 277° West 101 116 6,000  Level Fort Worth Center
Wed 04:07:20 AM 31.7961 -100.6422 269° West 101 116 6,000  Level Fort Worth Center
Wed 04:08:20 AM 31.7992 -100.6764 276° West 101 116 6,000  Level Fort Worth Center
Wed 04:09:20 AM 31.8006 -100.7058 273° West 101 116 6,000  Level Fort Worth Center
Wed 04:10:20 AM 31.8039 -100.7378 277° West 101 116 6,000  Level Fort Worth Center
Wed 04:11:20 AM 31.8031 -100.7694 268° West 101 116 6,000  Level Fort Worth Center
Wed 04:12:20 AM 31.8064 -100.8014 277° West 101 116 6,000  Level Fort Worth Center
Wed 04:13:20 AM 31.8078 -100.8333 273° West 101 116 6,000  Level Fort Worth Center
Wed 04:14:20 AM 31.8131 -100.8653 281° West 101 116 6,000  Level Fort Worth Center
Wed 04:15:20 AM 31.8142 -100.8969 272° West 101 116 6,000  Level Fort Worth Center
Wed 04:16:20 AM 31.8175 -100.9264 278° West 101 116 6,000  Level Fort Worth Center
Wed 04:17:20 AM 31.8186 -100.9608 272° West 101 116 6,000  Level Fort Worth Center
Wed 04:18:20 AM 31.8219 -100.9928 277° West 101 116 6,000  Level Fort Worth Center
Wed 04:19:20 AM 31.8211 -101.0194 268° West 96 110 6,000  Level Fort Worth Center
Wed 04:20:20 AM 31.8222 -101.0539 272° West 96 110 6,000  Level Fort Worth Center
Wed 04:21:20 AM 31.8256 -101.0858 277° West 109 125 6,000  Level Fort Worth Center
Wed 04:22:20 AM 31.8289 -101.1175 277° West 102 117 6,000  Level Fort Worth Center
Wed 04:23:20 AM 31.8300 -101.1469 273° West 102 117 6,000  Level Fort Worth Center
Wed 04:24:20 AM 31.8331 -101.1814 276° West 97 112 6,000  Level Fort Worth Center
Wed 04:25:20 AM 31.8386 -101.2133 282° West 102 117 6,000  Level Fort Worth Center
Wed 04:26:20 AM 31.8394 -101.2500 272° West 102 117 6,000  Level Fort Worth Center
Wed 04:27:20 AM 31.8447 -101.2797 282° West 102 117 6,000  Level Fort Worth Center
Wed 04:28:20 AM 31.8500 -101.3142 280° West 102 117 6,000  Level Fort Worth Center
Wed 04:29:20 AM 31.8511 -101.3458 272° West 102 117 6,000  Level Fort Worth Center
Wed 04:30:20 AM 31.8522 -101.3803 272° West 102 117 6,000  Level Fort Worth Center
Wed 04:31:20 AM 31.8531 -101.4144 272° West 102 117 6,000  Level Fort Worth Center
Wed 04:32:20 AM 31.8561 -101.4489 276° West 107 123 6,000  Level Fort Worth Center
Wed 04:33:20 AM 31.8614 -101.4808 281° West 101 116 6,000  Level Fort Worth Center
Wed 04:34:20 AM 31.8625 -101.5153 272° West 101 116 6,000  Level Fort Worth Center
Wed 04:35:20 AM 31.8656 -101.5472 276° West 101 116 6,000  Level Fort Worth Center
Wed 04:36:20 AM 31.8667 -101.5789 272° West 101 116 6,000  Level Fort Worth Center
Wed 04:37:20 AM 31.8697 -101.6133 276° West 101 116 6,000  Level Fort Worth Center
Wed 04:38:20 AM 31.8708 -101.6428 273° West 101 116 6,000  Level Fort Worth Center
Wed 04:39:20 AM 31.8739 -101.6747 276° West 101 116 6,000  Level Fort Worth Center
Wed 04:40:20 AM 31.8750 -101.7042 273° West 101 116 6,000 -200 Level Fort Worth Center
Wed 04:41:20 AM 31.8778 -101.7408 275° West 101 116 5,600 -450 Descending Fort Worth Center
Wed 04:42:20 AM 31.8828 -101.7753 280° West 106 122 5,100 -300 Descending Fort Worth Center
Wed 04:43:20 AM 31.8881 -101.8100 280° West 106 122 5,000  Descending Fort Worth Center
Wed 04:44:20 AM 31.8889 -101.8392 272° West 106 122 5,100 50 Climbing Fort Worth Center
Wed 04:45:20 AM 31.8878 -101.8711 268° West 101 116 5,100  Level Fort Worth Center
Wed 04:46:20 AM 31.8886 -101.9053 272° West 101 116 5,100  Level Fort Worth Center
Wed 04:47:20 AM 31.8917 -101.9372 276° West 101 116 5,100  Level Fort Worth Center
Wed 04:48:20 AM 31.8947 -101.9667 277° West 101 116 5,100  Level Fort Worth Center
Wed 04:49:20 AM 31.8958 -101.9986 272° West 101 116 5,100  Level Fort Worth Center
Wed 04:50:20 AM 31.8967 -102.0306 272° West 101 116 5,100  Level Fort Worth Center
Wed 04:51:20 AM 31.9000 -102.0575 278° West 101 116 5,100  Level Fort Worth Center
Wed 04:52:20 AM 31.9028 -102.0919 275° West 101 116 5,100  Level Fort Worth Center
Wed 04:53:20 AM 31.9039 -102.1214 273° West 101 116 5,100  Level Fort Worth Center
Wed 04:54:20 AM 31.9067 -102.1533 276° West 101 116 5,100  Level Fort Worth Center
Wed 04:55:20 AM 31.9075 -102.1853 272° West 101 116 5,100  Level Fort Worth Center
Wed 04:56:20 AM 31.9106 -102.2172 276° West 101 116 5,100  Level Fort Worth Center
Wed 04:57:20 AM 31.9136 -102.2467 277° West 101 116 5,100  Level Fort Worth Center
Wed 04:58:20 AM 31.9106 -102.2758 263° West 101 116 5,100  Level Fort Worth Center

Login

Don't have an account? Register now (free) for customized features, flight alerts, and more!